Terminal Aerodrome Forecast
Issued by NWS

Home | Current Version | Previous Version | Text Only | Print | Product List | Glossary On
Versions: 1 2 3 4 5 6 7 8 9 10 11 12
000
FTUS44 KCRP 211700
TAFLRD
TAF
KLRD 211731Z 2118/2218 16018G26KT P6SM SKC
     FM220100 14019G28KT P6SM SKC
     FM220800 15013KT P6SM FEW020
     FM221400 16016G22KT P6SM SKC=

USA.gov is the U.S. government's official web portal to all federal, state and local government web resources and services.